sensor_id;sensor_type;location;lat;lon;timestamp;pressure;altitude;pressure_sealevel;temperature;humidity
61573;BME280;47465;43.094;12.434;2023-09-19T00:01:06;98635.69;;;21.17;73.12
61573;BME280;47465;43.094;12.434;2023-09-19T00:03:34;98660.13;;;21.15;74.58
61573;BME280;47465;43.094;12.434;2023-09-19T00:06:03;98680.97;;;21.26;73.58
61573;BME280;47465;43.094;12.434;2023-09-19T00:08:30;98674.72;;;21.25;73.59
61573;BME280;47465;43.094;12.434;2023-09-19T00:10:56;98637.84;;;21.11;72.58
61573;BME280;47465;43.094;12.434;2023-09-19T00:13:28;98682.59;;;21.28;73.27
61573;BME280;47465;43.094;12.434;2023-09-19T00:15:54;98639.16;;;21.06;73.78
61573;BME280;47465;43.094;12.434;2023-09-19T00:18:21;98691.66;;;21.27;74.43
61573;BME280;47465;43.094;12.434;2023-09-19T00:20:47;98634.19;;;20.87;75.83
61573;BME280;47465;43.094;12.434;2023-09-19T00:23:16;98712.00;;;21.33;76.12
61573;BME280;47465;43.094;12.434;2023-09-19T00:25:42;98676.59;;;20.99;76.55
61573;BME280;47465;43.094;12.434;2023-09-19T00:28:08;98629.09;;;20.57;76.90
61573;BME280;47465;43.094;12.434;2023-09-19T00:30:34;98657.00;;;20.70;77.28
61573;BME280;47465;43.094;12.434;2023-09-19T00:33:00;98688.78;;;20.79;77.96
61573;BME280;47465;43.094;12.434;2023-09-19T00:35:31;98684.34;;;20.65;78.71
61573;BME280;47465;43.094;12.434;2023-09-19T00:37:57;98694.84;;;20.70;79.30
61573;BME280;47465;43.094;12.434;2023-09-19T00:40:24;98628.09;;;20.45;77.90
61573;BME280;47465;43.094;12.434;2023-09-19T00:42:51;98640.69;;;20.59;77.99
61573;BME280;47465;43.094;12.434;2023-09-19T00:45:18;98693.44;;;20.90;77.59
61573;BME280;47465;43.094;12.434;2023-09-19T00:47:48;98627.81;;;20.49;78.43
61573;BME280;47465;43.094;12.434;2023-09-19T00:50:15;98648.25;;;20.66;78.35
61573;BME280;47465;43.094;12.434;2023-09-19T00:52:43;98681.56;;;20.80;78.72
61573;BME280;47465;43.094;12.434;2023-09-19T00:55:10;98657.44;;;20.64;79.28
61573;BME280;47465;43.094;12.434;2023-09-19T00:57:38;98611.91;;;20.32;80.11
61573;BME280;47465;43.094;12.434;2023-09-19T01:00:07;98600.44;;;20.16;81.00
61573;BME280;47465;43.094;12.434;2023-09-19T01:02:34;98655.91;;;20.60;80.88
61573;BME280;47465;43.094;12.434;2023-09-19T01:05:00;98634.41;;;20.45;80.26
61573;BME280;47465;43.094;12.434;2023-09-19T01:07:27;98625.28;;;20.34;80.02
61573;BME280;47465;43.094;12.434;2023-09-19T01:09:55;98614.94;;;20.40;79.72
61573;BME280;47465;43.094;12.434;2023-09-19T01:12:32;98609.66;;;20.39;79.55
61573;BME280;47465;43.094;12.434;2023-09-19T01:15:06;98656.06;;;20.71;79.91
61573;BME280;47465;43.094;12.434;2023-09-19T01:17:43;98660.91;;;20.66;80.22
61573;BME280;47465;43.094;12.434;2023-09-19T01:20:19;98630.09;;;20.43;79.03
61573;BME280;47465;43.094;12.434;2023-09-19T01:22:58;98605.31;;;20.36;78.14
61573;BME280;47465;43.094;12.434;2023-09-19T01:28:30;98678.06;;;21.03;75.73
61573;BME280;47465;43.094;12.434;2023-09-19T01:31:06;98642.91;;;21.03;74.41
61573;BME280;47465;43.094;12.434;2023-09-19T01:33:54;98678.44;;;21.36;73.67
61573;BME280;47465;43.094;12.434;2023-09-19T01:36:22;98679.44;;;21.34;74.30
61573;BME280;47465;43.094;12.434;2023-09-19T01:38:49;98610.63;;;20.89;74.35
61573;BME280;47465;43.094;12.434;2023-09-19T01:41:19;98613.00;;;20.81;75.21
61573;BME280;47465;43.094;12.434;2023-09-19T01:43:49;98616.38;;;20.84;75.20
61573;BME280;47465;43.094;12.434;2023-09-19T01:46:21;98631.81;;;20.95;74.47
61573;BME280;47465;43.094;12.434;2023-09-19T01:48:54;98655.38;;;21.06;75.08
61573;BME280;47465;43.094;12.434;2023-09-19T01:51:30;98658.63;;;20.98;75.00
61573;BME280;47465;43.094;12.434;2023-09-19T01:54:01;98632.25;;;20.89;74.38
61573;BME280;47465;43.094;12.434;2023-09-19T01:56:31;98657.75;;;21.10;74.10
61573;BME280;47465;43.094;12.434;2023-09-19T01:59:03;98611.72;;;20.99;73.00
61573;BME280;47465;43.094;12.434;2023-09-19T02:01:32;98594.84;;;20.96;72.44
61573;BME280;47465;43.094;12.434;2023-09-19T02:03:59;98665.06;;;21.34;72.43
61573;BME280;47465;43.094;12.434;2023-09-19T02:06:25;98607.47;;;21.08;72.41
61573;BME280;47465;43.094;12.434;2023-09-19T02:08:51;98630.66;;;21.36;70.97
61573;BME280;47465;43.094;12.434;2023-09-19T02:11:17;98662.69;;;21.66;70.73
61573;BME280;47465;43.094;12.434;2023-09-19T02:13:43;98612.03;;;21.44;70.17
61573;BME280;47465;43.094;12.434;2023-09-19T02:16:09;98648.09;;;21.69;70.19
61573;BME280;47465;43.094;12.434;2023-09-19T02:18:38;98645.16;;;21.72;70.08
61573;BME280;47465;43.094;12.434;2023-09-19T02:21:04;98648.19;;;21.67;70.90
61573;BME280;47465;43.094;12.434;2023-09-19T02:23:32;98659.38;;;21.63;71.59
61573;BME280;47465;43.094;12.434;2023-09-19T02:25:59;98669.13;;;21.52;72.11
61573;BME280;47465;43.094;12.434;2023-09-19T02:28:26;98642.88;;;21.29;72.43
61573;BME280;47465;43.094;12.434;2023-09-19T02:30:55;98640.75;;;21.21;73.56
61573;BME280;47465;43.094;12.434;2023-09-19T02:33:21;98629.31;;;21.05;74.42
61573;BME280;47465;43.094;12.434;2023-09-19T02:35:49;98593.66;;;20.87;73.88
61573;BME280;47465;43.094;12.434;2023-09-19T02:38:16;98666.47;;;21.27;74.26
61573;BME280;47465;43.094;12.434;2023-09-19T02:40:47;98631.34;;;21.01;74.64
61573;BME280;47465;43.094;12.434;2023-09-19T02:43:13;98597.47;;;20.71;75.04
61573;BME280;47465;43.094;12.434;2023-09-19T02:45:39;98640.03;;;20.93;74.31
61573;BME280;47465;43.094;12.434;2023-09-19T02:48:05;98620.03;;;20.96;73.38
61573;BME280;47465;43.094;12.434;2023-09-19T02:50:33;98616.13;;;21.00;73.10
61573;BME280;47465;43.094;12.434;2023-09-19T02:53:01;98612.53;;;21.12;72.73
61573;BME280;47465;43.094;12.434;2023-09-19T02:55:27;98638.38;;;21.17;72.89
61573;BME280;47465;43.094;12.434;2023-09-19T02:57:54;98666.38;;;21.28;73.14
61573;BME280;47465;43.094;12.434;2023-09-19T03:00:21;98610.63;;;20.89;73.88
61573;BME280;47465;43.094;12.434;2023-09-19T03:02:48;98605.00;;;20.92;74.49
61573;BME280;47465;43.094;12.434;2023-09-19T03:05:14;98629.53;;;21.15;74.48
61573;BME280;47465;43.094;12.434;2023-09-19T03:07:40;98605.53;;;20.97;75.19
61573;BME280;47465;43.094;12.434;2023-09-19T03:10:10;98605.66;;;20.96;75.51
61573;BME280;47465;43.094;12.434;2023-09-19T03:12:36;98623.78;;;21.06;75.79
61573;BME280;47465;43.094;12.434;2023-09-19T03:15:02;98648.88;;;21.21;76.16
61573;BME280;47465;43.094;12.434;2023-09-19T03:17:30;98611.47;;;21.02;76.05
61573;BME280;47465;43.094;12.434;2023-09-19T03:19:56;98585.56;;;20.87;76.76
61573;BME280;47465;43.094;12.434;2023-09-19T03:22:22;98632.97;;;21.17;76.65
61573;BME280;47465;43.094;12.434;2023-09-19T03:24:50;98584.81;;;20.85;77.47
61573;BME280;47465;43.094;12.434;2023-09-19T03:27:17;98572.72;;;20.78;78.10
61573;BME280;47465;43.094;12.434;2023-09-19T03:29:44;98576.91;;;20.82;77.94
61573;BME280;47465;43.094;12.434;2023-09-19T03:32:09;98607.50;;;20.95;79.01
61573;BME280;47465;43.094;12.434;2023-09-19T03:34:36;98623.03;;;21.04;78.88
61573;BME280;47465;43.094;12.434;2023-09-19T03:37:05;98646.19;;;21.08;79.91
61573;BME280;47465;43.094;12.434;2023-09-19T03:39:35;98586.44;;;20.62;80.82
61573;BME280;47465;43.094;12.434;2023-09-19T03:42:01;98565.69;;;20.62;80.43
61573;BME280;47465;43.094;12.434;2023-09-19T03:44:31;98633.84;;;21.04;81.24
61573;BME280;47465;43.094;12.434;2023-09-19T03:46:57;98605.44;;;20.86;81.99
61573;BME280;47465;43.094;12.434;2023-09-19T03:49:23;98566.56;;;20.63;82.71
61573;BME280;47465;43.094;12.434;2023-09-19T03:51:49;98605.75;;;20.94;82.52
61573;BME280;47465;43.094;12.434;2023-09-19T03:54:15;98620.09;;;21.07;82.84
61573;BME280;47465;43.094;12.434;2023-09-19T03:56:42;98566.13;;;20.69;83.03
61573;BME280;47465;43.094;12.434;2023-09-19T03:59:09;98622.06;;;21.05;83.71
61573;BME280;47465;43.094;12.434;2023-09-19T04:01:36;98569.13;;;20.64;84.75
61573;BME280;47465;43.094;12.434;2023-09-19T04:04:03;98570.13;;;20.63;84.91
61573;BME280;47465;43.094;12.434;2023-09-19T04:06:33;98563.22;;;20.59;85.86
61573;BME280;47465;43.094;12.434;2023-09-19T04:09:00;98560.72;;;20.56;86.24
61573;BME280;47465;43.094;12.434;2023-09-19T04:11:27;98598.84;;;20.77;86.97
61573;BME280;47465;43.094;12.434;2023-09-19T04:13:53;98640.47;;;20.87;87.77
61573;BME280;47465;43.094;12.434;2023-09-19T04:16:19;98579.50;;;20.45;88.83
61573;BME280;47465;43.094;12.434;2023-09-19T04:18:47;98589.91;;;20.64;88.77
61573;BME280;47465;43.094;12.434;2023-09-19T04:21:13;98573.38;;;20.43;89.17
61573;BME280;47465;43.094;12.434;2023-09-19T04:23:39;98627.09;;;20.60;93.18
61573;BME280;47465;43.094;12.434;2023-09-19T04:26:05;98605.53;;;20.46;93.65
61573;BME280;47465;43.094;12.434;2023-09-19T04:28:31;98607.81;;;20.39;94.12
61573;BME280;47465;43.094;12.434;2023-09-19T04:30:58;98576.91;;;20.30;94.74
61573;BME280;47465;43.094;12.434;2023-09-19T04:33:25;98556.16;;;20.05;96.24
61573;BME280;47465;43.094;12.434;2023-09-19T04:35:54;98561.09;;;19.99;96.74
61573;BME280;47465;43.094;12.434;2023-09-19T04:38:20;98576.63;;;19.82;99.54
61573;BME280;47465;43.094;12.434;2023-09-19T04:40:47;98609.50;;;20.02;98.76
61573;BME280;47465;43.094;12.434;2023-09-19T04:43:13;98633.25;;;20.09;98.24
61573;BME280;47465;43.094;12.434;2023-09-19T04:45:41;98581.38;;;19.64;100.00
61573;BME280;47465;43.094;12.434;2023-09-19T04:48:07;98571.03;;;19.58;100.00
61573;BME280;47465;43.094;12.434;2023-09-19T04:50:34;98583.84;;;19.55;100.00
61573;BME280;47465;43.094;12.434;2023-09-19T04:53:01;98649.53;;;19.95;100.00
61573;BME280;47465;43.094;12.434;2023-09-19T04:55:28;98600.28;;;19.64;100.00
61573;BME280;47465;43.094;12.434;2023-09-19T04:57:56;98602.16;;;19.49;100.00
61573;BME280;47465;43.094;12.434;2023-09-19T05:00:22;98600.34;;;19.50;100.00
61573;BME280;47465;43.094;12.434;2023-09-19T05:02:50;98599.47;;;19.49;100.00
61573;BME280;47465;43.094;12.434;2023-09-19T05:05:17;98661.69;;;19.88;100.00
61573;BME280;47465;43.094;12.434;2023-09-19T05:07:45;98595.91;;;19.49;100.00
61573;BME280;47465;43.094;12.434;2023-09-19T05:10:13;98605.47;;;19.40;100.00
61573;BME280;47465;43.094;12.434;2023-09-19T05:12:42;98606.44;;;19.66;100.00
61573;BME280;47465;43.094;12.434;2023-09-19T05:15:14;98607.25;;;19.27;100.00
61573;BME280;47465;43.094;12.434;2023-09-19T05:17:47;98674.75;;;19.67;100.00
61573;BME280;47465;43.094;12.434;2023-09-19T05:20:15;98653.88;;;19.56;100.00
61573;BME280;47465;43.094;12.434;2023-09-19T05:22:50;98669.66;;;19.77;100.00
61573;BME280;47465;43.094;12.434;2023-09-19T05:25:17;98689.59;;;19.74;100.00
61573;BME280;47465;43.094;12.434;2023-09-19T05:27:47;98645.81;;;19.69;100.00
61573;BME280;47465;43.094;12.434;2023-09-19T05:30:13;98658.41;;;19.70;100.00
61573;BME280;47465;43.094;12.434;2023-09-19T05:32:40;98663.97;;;19.94;100.00
61573;BME280;47465;43.094;12.434;2023-09-19T05:35:07;98642.97;;;19.72;100.00
61573;BME280;47465;43.094;12.434;2023-09-19T05:37:35;98644.88;;;19.97;100.00
61573;BME280;47465;43.094;12.434;2023-09-19T05:40:02;98706.53;;;20.30;100.00
61573;BME280;47465;43.094;12.434;2023-09-19T05:42:40;98705.34;;;20.35;100.00
61573;BME280;47465;43.094;12.434;2023-09-19T05:45:08;98632.59;;;20.06;100.00
61573;BME280;47465;43.094;12.434;2023-09-19T05:47:37;98637.72;;;20.23;100.00
61573;BME280;47465;43.094;12.434;2023-09-19T05:50:04;98707.47;;;20.29;100.00
61573;BME280;47465;43.094;12.434;2023-09-19T05:52:30;98715.41;;;20.33;100.00
61573;BME280;47465;43.094;12.434;2023-09-19T05:54:57;98677.94;;;20.41;100.00
61573;BME280;47465;43.094;12.434;2023-09-19T05:57:23;98680.63;;;20.41;100.00
61573;BME280;47465;43.094;12.434;2023-09-19T05:59:52;98657.72;;;20.46;100.00
61573;BME280;47465;43.094;12.434;2023-09-19T06:02:18;98697.13;;;20.89;100.00
61573;BME280;47465;43.094;12.434;2023-09-19T06:04:45;98664.38;;;20.81;100.00
61573;BME280;47465;43.094;12.434;2023-09-19T06:07:11;98699.25;;;21.09;100.00
61573;BME280;47465;43.094;12.434;2023-09-19T06:09:37;98717.31;;;21.22;100.00
61573;BME280;47465;43.094;12.434;2023-09-19T06:12:04;98717.97;;;21.25;100.00
61573;BME280;47465;43.094;12.434;2023-09-19T06:14:31;98710.16;;;21.21;100.00
61573;BME280;47465;43.094;12.434;2023-09-19T06:16:58;98729.75;;;21.37;100.00
61573;BME280;47465;43.094;12.434;2023-09-19T06:19:26;98744.66;;;21.56;100.00
61573;BME280;47465;43.094;12.434;2023-09-19T06:21:52;98676.66;;;21.23;100.00
61573;BME280;47465;43.094;12.434;2023-09-19T06:24:19;98674.06;;;21.22;100.00
61573;BME280;47465;43.094;12.434;2023-09-19T06:26:46;98685.84;;;21.21;100.00
61573;BME280;47465;43.094;12.434;2023-09-19T06:29:13;98665.72;;;21.12;100.00
61573;BME280;47465;43.094;12.434;2023-09-19T06:31:42;98694.50;;;21.26;100.00
61573;BME280;47465;43.094;12.434;2023-09-19T06:34:09;98725.84;;;21.54;100.00
61573;BME280;47465;43.094;12.434;2023-09-19T06:36:38;98683.00;;;21.35;100.00
61573;BME280;47465;43.094;12.434;2023-09-19T06:39:20;98743.34;;;21.74;100.00
61573;BME280;47465;43.094;12.434;2023-09-19T06:41:53;98676.50;;;21.38;100.00
61573;BME280;47465;43.094;12.434;2023-09-19T06:44:31;98664.81;;;21.37;100.00
61573;BME280;47465;43.094;12.434;2023-09-19T06:47:03;98668.84;;;21.44;100.00
61573;BME280;47465;43.094;12.434;2023-09-19T06:49:31;98720.47;;;21.78;100.00
61573;BME280;47465;43.094;12.434;2023-09-19T06:51:57;98674.00;;;21.60;99.44
61573;BME280;47465;43.094;12.434;2023-09-19T06:54:42;98743.56;;;22.08;98.91
61573;BME280;47465;43.094;12.434;2023-09-19T06:57:08;98720.00;;;21.97;98.26
61573;BME280;47465;43.094;12.434;2023-09-19T06:59:35;98745.47;;;22.19;98.06
61573;BME280;47465;43.094;12.434;2023-09-19T07:02:03;98690.25;;;21.84;97.80
61573;BME280;47465;43.094;12.434;2023-09-19T07:04:33;98751.72;;;22.19;97.55
61573;BME280;47465;43.094;12.434;2023-09-19T07:06:59;98698.31;;;21.73;98.67
61573;BME280;47465;43.094;12.434;2023-09-19T07:09:25;98737.38;;;22.06;98.66
61573;BME280;47465;43.094;12.434;2023-09-19T07:11:53;98707.34;;;21.85;99.43
61573;BME280;47465;43.094;12.434;2023-09-19T07:14:19;98693.06;;;21.83;100.00
61573;BME280;47465;43.094;12.434;2023-09-19T07:16:45;98702.25;;;21.93;100.00
61573;BME280;47465;43.094;12.434;2023-09-19T07:19:13;98746.78;;;22.13;100.00
61573;BME280;47465;43.094;12.434;2023-09-19T07:21:42;98728.56;;;22.15;100.00
61573;BME280;47465;43.094;12.434;2023-09-19T07:24:08;98709.22;;;22.08;99.96
61573;BME280;47465;43.094;12.434;2023-09-19T07:26:37;98708.66;;;22.03;100.00
61573;BME280;47465;43.094;12.434;2023-09-19T07:29:03;98708.09;;;22.11;100.00
61573;BME280;47465;43.094;12.434;2023-09-19T07:31:29;98697.53;;;22.08;99.16
61573;BME280;47465;43.094;12.434;2023-09-19T07:33:57;98724.66;;;21.95;100.00
61573;BME280;47465;43.094;12.434;2023-09-19T07:36:23;98720.53;;;21.89;100.00
61573;BME280;47465;43.094;12.434;2023-09-19T07:38:51;98747.69;;;22.01;100.00
61573;BME280;47465;43.094;12.434;2023-09-19T07:41:19;98790.34;;;22.10;100.00
61573;BME280;47465;43.094;12.434;2023-09-19T07:43:46;98756.91;;;21.98;100.00
61573;BME280;47465;43.094;12.434;2023-09-19T07:46:12;98763.41;;;21.95;100.00
61573;BME280;47465;43.094;12.434;2023-09-19T07:48:38;98751.06;;;21.91;100.00
61573;BME280;47465;43.094;12.434;2023-09-19T07:51:06;98725.59;;;21.94;100.00
61573;BME280;47465;43.094;12.434;2023-09-19T07:53:33;98749.84;;;22.32;100.00
61573;BME280;47465;43.094;12.434;2023-09-19T07:56:07;98732.75;;;22.32;100.00
61573;BME280;47465;43.094;12.434;2023-09-19T07:58:34;98747.47;;;22.52;100.00
61573;BME280;47465;43.094;12.434;2023-09-19T08:01:05;98782.13;;;22.95;100.00
61573;BME280;47465;43.094;12.434;2023-09-19T08:03:32;98729.59;;;22.96;100.00
61573;BME280;47465;43.094;12.434;2023-09-19T08:05:58;98716.34;;;23.38;99.32
61573;BME280;47465;43.094;12.434;2023-09-19T08:08:24;98762.47;;;23.94;96.66
61573;BME280;47465;43.094;12.434;2023-09-19T08:10:53;98748.50;;;23.99;96.25
61573;BME280;47465;43.094;12.434;2023-09-19T08:13:21;98793.75;;;24.32;96.25
61573;BME280;47465;43.094;12.434;2023-09-19T08:15:47;98733.25;;;24.19;95.44
61573;BME280;47465;43.094;12.434;2023-09-19T08:18:13;98724.50;;;24.15;93.99
61573;BME280;47465;43.094;12.434;2023-09-19T08:20:40;98719.16;;;24.25;92.59
61573;BME280;47465;43.094;12.434;2023-09-19T08:23:08;98760.88;;;24.35;94.22
61573;BME280;47465;43.094;12.434;2023-09-19T08:25:34;98725.34;;;24.27;94.66
61573;BME280;47465;43.094;12.434;2023-09-19T08:28:00;98743.53;;;24.48;96.12
61573;BME280;47465;43.094;12.434;2023-09-19T08:30:30;98759.34;;;24.54;94.16
61573;BME280;47465;43.094;12.434;2023-09-19T08:32:57;98728.28;;;24.35;93.11
61573;BME280;47465;43.094;12.434;2023-09-19T08:35:24;98751.78;;;24.46;93.28
61573;BME280;47465;43.094;12.434;2023-09-19T08:37:50;98767.84;;;24.17;95.48
61573;BME280;47465;43.094;12.434;2023-09-19T08:40:20;98740.38;;;23.76;96.85
61573;BME280;47465;43.094;12.434;2023-09-19T08:42:50;98741.56;;;24.06;96.97
61573;BME280;47465;43.094;12.434;2023-09-19T08:45:16;98736.25;;;24.16;95.79
61573;BME280;47465;43.094;12.434;2023-09-19T08:47:46;98742.38;;;24.29;95.38
61573;BME280;47465;43.094;12.434;2023-09-19T08:50:18;98749.47;;;24.42;94.40
61573;BME280;47465;43.094;12.434;2023-09-19T08:52:46;98732.31;;;24.41;93.83
61573;BME280;47465;43.094;12.434;2023-09-19T08:55:13;98742.66;;;24.58;91.70
61573;BME280;47465;43.094;12.434;2023-09-19T08:57:46;98753.06;;;24.53;92.88
61573;BME280;47465;43.094;12.434;2023-09-19T09:00:15;98779.47;;;24.63;93.46
61573;BME280;47465;43.094;12.434;2023-09-19T09:02:45;98738.84;;;24.50;93.42
61573;BME280;47465;43.094;12.434;2023-09-19T09:05:13;98779.91;;;25.21;91.01
61573;BME280;47465;43.094;12.434;2023-09-19T09:07:41;98783.69;;;25.30;91.25
61573;BME280;47465;43.094;12.434;2023-09-19T09:10:08;98773.97;;;25.37;90.28
61573;BME280;47465;43.094;12.434;2023-09-19T09:12:35;98773.09;;;25.15;90.43
61573;BME280;47465;43.094;12.434;2023-09-19T09:15:06;98734.88;;;25.38;88.99
61573;BME280;47465;43.094;12.434;2023-09-19T09:17:32;98734.56;;;25.72;86.08
61573;BME280;47465;43.094;12.434;2023-09-19T09:20:00;98779.75;;;26.15;85.27
61573;BME280;47465;43.094;12.434;2023-09-19T09:22:26;98742.47;;;25.85;83.56
61573;BME280;47465;43.094;12.434;2023-09-19T09:24:52;98739.47;;;25.78;84.75
61573;BME280;47465;43.094;12.434;2023-09-19T09:27:20;98750.53;;;25.86;85.41
61573;BME280;47465;43.094;12.434;2023-09-19T09:29:50;98745.16;;;25.65;85.78
61573;BME280;47465;43.094;12.434;2023-09-19T09:32:18;98719.19;;;25.92;84.55
61573;BME280;47465;43.094;12.434;2023-09-19T09:34:46;98719.06;;;26.32;82.43
61573;BME280;47465;43.094;12.434;2023-09-19T09:37:15;98718.25;;;26.71;80.34
61573;BME280;47465;43.094;12.434;2023-09-19T09:39:52;98749.88;;;27.20;77.97
61573;BME280;47465;43.094;12.434;2023-09-19T09:42:32;98771.72;;;27.20;78.25
61573;BME280;47465;43.094;12.434;2023-09-19T09:45:17;98721.81;;;26.71;79.21
61573;BME280;47465;43.094;12.434;2023-09-19T09:47:46;98708.16;;;26.52;79.00
61573;BME280;47465;43.094;12.434;2023-09-19T09:51:08;98701.44;;;26.56;78.27
61573;BME280;47465;43.094;12.434;2023-09-19T09:53:36;98715.81;;;26.58;78.28
61573;BME280;47465;43.094;12.434;2023-09-19T09:56:03;98711.94;;;26.70;78.59
61573;BME280;47465;43.094;12.434;2023-09-19T09:58:32;98712.66;;;26.72;76.29
61573;BME280;47465;43.094;12.434;2023-09-19T10:00:59;98693.41;;;26.64;76.77
61573;BME280;47465;43.094;12.434;2023-09-19T10:03:35;98696.72;;;26.68;76.06
61573;BME280;47465;43.094;12.434;2023-09-19T10:06:10;98716.81;;;26.67;76.79
61573;BME280;47465;43.094;12.434;2023-09-19T10:09:04;98746.94;;;26.84;77.01
61573;BME280;47465;43.094;12.434;2023-09-19T10:11:43;98704.03;;;26.67;75.95
61573;BME280;47465;43.094;12.434;2023-09-19T10:14:11;98732.13;;;26.97;74.84
61573;BME280;47465;43.094;12.434;2023-09-19T10:16:40;98677.91;;;26.64;74.46
61573;BME280;47465;43.094;12.434;2023-09-19T10:19:10;98697.94;;;27.02;73.37
61573;BME280;47465;43.094;12.434;2023-09-19T10:21:41;98722.94;;;27.55;70.75
61573;BME280;47465;43.094;12.434;2023-09-19T10:24:09;98707.28;;;27.75;67.49
61573;BME280;47465;43.094;12.434;2023-09-19T10:26:36;98691.59;;;27.77;67.44
61573;BME280;47465;43.094;12.434;2023-09-19T10:29:03;98681.00;;;27.74;67.78
61573;BME280;47465;43.094;12.434;2023-09-19T10:31:33;98723.16;;;27.99;63.26
61573;BME280;47465;43.094;12.434;2023-09-19T10:34:02;98692.59;;;28.03;62.95
61573;BME280;47465;43.094;12.434;2023-09-19T10:36:32;98717.72;;;28.35;63.86
61573;BME280;47465;43.094;12.434;2023-09-19T10:39:03;98711.84;;;28.30;62.83
61573;BME280;47465;43.094;12.434;2023-09-19T10:41:32;98700.28;;;28.18;61.61
61573;BME280;47465;43.094;12.434;2023-09-19T10:44:03;98676.75;;;28.25;61.56
61573;BME280;47465;43.094;12.434;2023-09-19T10:46:31;98707.50;;;28.55;61.68
61573;BME280;47465;43.094;12.434;2023-09-19T10:48:58;98669.72;;;28.40;61.59
61573;BME280;47465;43.094;12.434;2023-09-19T10:51:25;98671.78;;;28.56;61.50
61573;BME280;47465;43.094;12.434;2023-09-19T10:54:04;98701.06;;;28.64;60.08
61573;BME280;47465;43.094;12.434;2023-09-19T10:56:33;98694.16;;;28.78;59.02
61573;BME280;47465;43.094;12.434;2023-09-19T10:59:07;98678.00;;;28.66;57.83
61573;BME280;47465;43.094;12.434;2023-09-19T11:01:42;98667.41;;;28.63;56.79
61573;BME280;47465;43.094;12.434;2023-09-19T11:04:30;98680.25;;;28.71;58.48
61573;BME280;47465;43.094;12.434;2023-09-19T11:07:02;98704.19;;;28.87;57.38
61573;BME280;47465;43.094;12.434;2023-09-19T11:09:48;98689.16;;;28.91;58.05
61573;BME280;47465;43.094;12.434;2023-09-19T11:12:48;98650.91;;;28.55;58.57
61573;BME280;47465;43.094;12.434;2023-09-19T11:21:40;98688.13;;;28.92;56.30
61573;BME280;47465;43.094;12.434;2023-09-19T11:24:28;98661.09;;;28.71;53.96
61573;BME280;47465;43.094;12.434;2023-09-19T11:27:11;98641.59;;;28.66;53.81
61573;BME280;47465;43.094;12.434;2023-09-19T11:29:40;98680.78;;;29.19;53.09
61573;BME280;47465;43.094;12.434;2023-09-19T11:32:05;98676.88;;;29.21;52.78
61573;BME280;47465;43.094;12.434;2023-09-19T11:34:39;98694.66;;;28.99;53.05
61573;BME280;47465;43.094;12.434;2023-09-19T11:40:37;98674.81;;;28.35;55.15
61573;BME280;47465;43.094;12.434;2023-09-19T11:43:31;98689.53;;;28.52;53.79
61573;BME280;47465;43.094;12.434;2023-09-19T11:46:08;98662.13;;;28.34;53.36
61573;BME280;47465;43.094;12.434;2023-09-19T11:48:40;98674.44;;;28.48;54.26
61573;BME280;47465;43.094;12.434;2023-09-19T11:51:18;98662.63;;;28.47;54.80
61573;BME280;47465;43.094;12.434;2023-09-19T11:53:48;98646.31;;;28.82;53.13
61573;BME280;47465;43.094;12.434;2023-09-19T11:56:15;98620.53;;;28.93;50.34
61573;BME280;47465;43.094;12.434;2023-09-19T11:58:44;98665.44;;;29.34;50.71
61573;BME280;47465;43.094;12.434;2023-09-19T12:01:13;98647.97;;;29.27;51.32
61573;BME280;47465;43.094;12.434;2023-09-19T12:03:42;98651.09;;;29.40;51.27
61573;BME280;47465;43.094;12.434;2023-09-19T12:06:14;98650.16;;;29.58;50.12
61573;BME280;47465;43.094;12.434;2023-09-19T12:08:41;98653.94;;;29.57;48.89
61573;BME280;47465;43.094;12.434;2023-09-19T12:11:12;98620.66;;;29.43;49.09
61573;BME280;47465;43.094;12.434;2023-09-19T12:13:43;98658.47;;;29.40;48.86
61573;BME280;47465;43.094;12.434;2023-09-19T12:16:14;98625.38;;;29.25;49.61
61573;BME280;47465;43.094;12.434;2023-09-19T12:18:41;98657.09;;;29.36;50.55
61573;BME280;47465;43.094;12.434;2023-09-19T12:21:22;98619.94;;;29.07;49.80
61573;BME280;47465;43.094;12.434;2023-09-19T12:24:03;98620.44;;;29.28;49.59
61573;BME280;47465;43.094;12.434;2023-09-19T12:26:30;98639.91;;;29.25;48.13
61573;BME280;47465;43.094;12.434;2023-09-19T12:29:04;98627.13;;;28.56;49.30
61573;BME280;47465;43.094;12.434;2023-09-19T12:31:33;98635.47;;;28.72;50.28
61573;BME280;47465;43.094;12.434;2023-09-19T12:34:02;98616.19;;;28.56;50.67
61573;BME280;47465;43.094;12.434;2023-09-19T12:36:29;98612.50;;;28.47;50.39
61573;BME280;47465;43.094;12.434;2023-09-19T12:38:56;98619.00;;;28.46;51.21
61573;BME280;47465;43.094;12.434;2023-09-19T12:41:24;98601.13;;;28.52;50.05
61573;BME280;47465;43.094;12.434;2023-09-19T12:43:51;98613.47;;;28.82;49.11
61573;BME280;47465;43.094;12.434;2023-09-19T12:46:21;98598.16;;;28.97;49.46
61573;BME280;47465;43.094;12.434;2023-09-19T12:49:17;98630.66;;;29.61;48.97
61573;BME280;47465;43.094;12.434;2023-09-19T12:51:43;98617.28;;;29.66;47.95
61573;BME280;47465;43.094;12.434;2023-09-19T12:54:09;98597.81;;;29.69;47.22
61573;BME280;47465;43.094;12.434;2023-09-19T12:56:39;98628.03;;;29.94;47.16
61573;BME280;47465;43.094;12.434;2023-09-19T12:59:11;98615.34;;;29.84;46.89
61573;BME280;47465;43.094;12.434;2023-09-19T13:01:40;98631.63;;;30.19;46.59
61573;BME280;47465;43.094;12.434;2023-09-19T13:04:12;98578.66;;;30.10;44.71
61573;BME280;47465;43.094;12.434;2023-09-19T13:06:40;98613.69;;;30.33;45.20
61573;BME280;47465;43.094;12.434;2023-09-19T13:09:10;98616.38;;;30.24;45.74
61573;BME280;47465;43.094;12.434;2023-09-19T13:11:36;98603.72;;;30.15;43.88